createdAt,value
2022-10-01T00:00:18.730Z,0.00
2022-10-01T00:01:18.810Z,0.00
2022-10-01T00:02:18.723Z,0.00
2022-10-01T00:03:18.988Z,0.00
2022-10-01T00:04:18.703Z,0.00
2022-10-01T00:05:18.675Z,0.00
2022-10-01T00:06:18.667Z,0.00
2022-10-01T00:07:18.674Z,0.00
2022-10-01T00:08:18.658Z,0.00
2022-10-01T00:09:18.639Z,0.00
2022-10-01T00:10:18.644Z,0.00
2022-10-01T00:11:18.605Z,0.00
2022-10-01T00:12:18.618Z,0.00
2022-10-01T00:13:18.601Z,0.00
2022-10-01T00:14:18.613Z,0.00
2022-10-01T00:15:18.564Z,0.00
2022-10-01T00:16:18.625Z,0.00
2022-10-01T00:17:18.558Z,0.00
2022-10-01T00:18:18.543Z,0.00
2022-10-01T00:19:18.533Z,0.00
2022-10-01T00:20:18.549Z,0.00
2022-10-01T00:21:18.512Z,0.00
2022-10-01T00:22:18.510Z,0.00
2022-10-01T00:23:18.472Z,0.00
2022-10-01T00:24:18.475Z,0.00
2022-10-01T00:25:18.490Z,0.00
2022-10-01T00:26:18.498Z,0.00
2022-10-01T00:27:18.439Z,0.00
2022-10-01T00:28:18.533Z,0.00
2022-10-01T00:29:18.413Z,0.00
2022-10-01T00:30:18.422Z,0.00
2022-10-01T00:31:18.454Z,0.00
2022-10-01T00:32:18.404Z,0.00
2022-10-01T00:33:18.401Z,0.00
2022-10-01T00:34:18.411Z,0.00
2022-10-01T00:35:18.370Z,0.00
2022-10-01T00:36:18.352Z,0.00
2022-10-01T00:37:18.350Z,0.00
2022-10-01T00:38:18.335Z,0.00
2022-10-01T00:39:18.304Z,0.00
2022-10-01T00:40:18.305Z,0.00
2022-10-01T00:41:18.320Z,0.00
2022-10-01T00:42:18.279Z,0.00
2022-10-01T00:43:18.311Z,0.00
2022-10-01T00:44:18.261Z,0.00
2022-10-01T00:45:18.244Z,0.00
2022-10-01T00:46:18.339Z,0.00
2022-10-01T00:47:18.225Z,0.00
2022-10-01T00:48:18.223Z,0.00
2022-10-01T00:49:18.214Z,0.00
2022-10-01T00:50:18.210Z,0.00
2022-10-01T00:51:18.203Z,0.00
2022-10-01T00:52:18.183Z,0.00
2022-10-01T00:53:18.206Z,0.00
2022-10-01T00:54:18.163Z,0.00
2022-10-01T00:55:18.137Z,0.00
2022-10-01T00:56:18.204Z,0.00
2022-10-01T00:57:18.124Z,0.00
2022-10-01T00:58:18.123Z,0.00
2022-10-01T00:59:18.175Z,0.00
2022-10-01T01:00:18.151Z,0.00
2022-10-01T01:01:18.095Z,0.00
2022-10-01T01:02:18.137Z,0.00
2022-10-01T01:03:18.063Z,0.00
2022-10-01T01:04:18.056Z,0.00
2022-10-01T01:05:18.055Z,0.00
2022-10-01T01:06:18.036Z,0.00
2022-10-01T01:07:18.009Z,0.00
2022-10-01T01:08:18.017Z,0.00
2022-10-01T01:09:18.017Z,0.00
2022-10-01T01:10:18.016Z,0.00
2022-10-01T01:11:17.985Z,0.00
2022-10-01T01:12:17.975Z,0.00
2022-10-01T01:13:17.957Z,0.00
2022-10-01T01:14:17.951Z,0.00
2022-10-01T01:15:17.938Z,0.00
2022-10-01T01:16:17.972Z,0.00
2022-10-01T01:17:17.944Z,0.00
2022-10-01T01:18:17.927Z,0.00
2022-10-01T01:19:17.907Z,0.00
2022-10-01T01:20:17.887Z,0.00
2022-10-01T01:21:17.860Z,0.00
2022-10-01T01:22:17.863Z,0.00
2022-10-01T01:23:17.931Z,0.00
2022-10-01T01:24:17.855Z,0.00
2022-10-01T01:25:17.853Z,0.00
2022-10-01T01:26:17.812Z,0.00
2022-10-01T01:27:17.812Z,0.00
2022-10-01T01:28:17.902Z,0.00
2022-10-01T01:29:17.787Z,0.00
2022-10-01T01:30:17.796Z,0.00
2022-10-01T01:31:17.840Z,0.00
2022-10-01T01:32:17.759Z,0.00
2022-10-01T01:33:17.748Z,0.00
2022-10-01T01:34:17.738Z,0.00
2022-10-01T01:35:17.754Z,0.00
2022-10-01T01:36:17.718Z,0.00
2022-10-01T01:37:17.697Z,0.00
2022-10-01T01:38:17.702Z,0.00
2022-10-01T01:39:17.674Z,0.00
2022-10-01T01:40:17.686Z,0.00
2022-10-01T01:41:17.655Z,0.00
2022-10-01T01:42:17.677Z,0.00
2022-10-01T01:43:17.629Z,0.00
2022-10-01T01:44:17.694Z,0.00
2022-10-01T01:45:17.631Z,0.00
2022-10-01T01:46:17.793Z,0.00
2022-10-01T01:47:17.591Z,0.00
2022-10-01T01:48:17.620Z,0.00
2022-10-01T01:49:17.585Z,0.00
2022-10-01T01:50:17.567Z,0.00
2022-10-01T01:51:17.617Z,0.00
2022-10-01T01:52:17.557Z,0.00
2022-10-01T01:53:17.519Z,0.00
2022-10-01T01:54:17.532Z,0.00
2022-10-01T01:55:17.503Z,0.00
2022-10-01T01:56:17.491Z,0.00
2022-10-01T01:57:17.514Z,0.00
2022-10-01T01:58:17.478Z,0.00
2022-10-01T01:59:17.466Z,0.00
2022-10-01T02:00:17.458Z,0.00
2022-10-01T02:01:17.497Z,0.00
2022-10-01T02:02:17.578Z,0.00
2022-10-01T02:03:17.426Z,0.00
2022-10-01T02:04:17.418Z,0.00
2022-10-01T02:05:17.415Z,0.00
2022-10-01T02:06:17.395Z,0.00
2022-10-01T02:07:17.386Z,0.00
2022-10-01T02:08:17.384Z,0.00
2022-10-01T02:09:17.352Z,0.00
2022-10-01T02:10:17.413Z,0.00
2022-10-01T02:11:17.346Z,0.00
2022-10-01T02:12:17.354Z,0.00
2022-10-01T02:13:17.321Z,0.00
2022-10-01T02:14:17.305Z,0.00
2022-10-01T02:15:17.290Z,0.00
2022-10-01T02:16:17.324Z,0.00
2022-10-01T02:17:17.287Z,0.00
2022-10-01T02:18:17.273Z,0.00
2022-10-01T02:19:17.255Z,0.00
2022-10-01T02:20:17.243Z,0.00
2022-10-01T02:21:17.222Z,0.00
2022-10-01T02:22:17.218Z,0.00
2022-10-01T02:23:17.221Z,0.00
2022-10-01T02:24:17.220Z,0.00
2022-10-01T02:25:17.194Z,0.00
2022-10-01T02:26:17.164Z,0.00
2022-10-01T02:27:17.170Z,0.00
2022-10-01T02:28:17.280Z,0.00
2022-10-01T02:29:17.158Z,0.00
2022-10-01T02:30:17.124Z,0.00
2022-10-01T02:31:17.153Z,0.00
2022-10-01T02:32:17.096Z,0.00
2022-10-01T02:33:17.121Z,0.00
2022-10-01T02:34:20.130Z,0.00
2022-10-01T02:35:17.113Z,0.00
2022-10-01T02:36:17.061Z,0.00
2022-10-01T02:37:17.050Z,0.00
2022-10-01T02:38:17.037Z,0.00
2022-10-01T02:39:17.026Z,0.00
2022-10-01T02:40:17.366Z,0.00
2022-10-01T02:41:17.031Z,0.00
2022-10-01T02:42:17.019Z,0.00
2022-10-01T02:43:17.002Z,0.00
2022-10-01T02:44:16.974Z,0.00
2022-10-01T02:45:16.969Z,0.00
2022-10-01T02:46:17.066Z,0.00
2022-10-01T02:47:16.952Z,0.00
2022-10-01T02:48:16.928Z,0.00
2022-10-01T02:49:16.985Z,0.00
2022-10-01T02:50:16.942Z,0.00
2022-10-01T02:51:16.916Z,0.00
2022-10-01T02:52:16.888Z,0.00
2022-10-01T02:53:16.886Z,0.00
2022-10-01T02:54:16.871Z,0.00
2022-10-01T02:55:16.890Z,0.00
2022-10-01T02:56:16.853Z,0.00
2022-10-01T02:57:16.847Z,0.00
2022-10-01T02:58:16.815Z,0.00
2022-10-01T02:59:16.826Z,0.00
2022-10-01T03:00:16.812Z,0.00
2022-10-01T03:01:16.841Z,0.00
2022-10-01T03:02:16.842Z,0.00
2022-10-01T03:03:16.810Z,0.00
2022-10-01T03:04:16.770Z,0.00
2022-10-01T03:05:16.759Z,0.00
2022-10-01T03:06:16.753Z,0.00
2022-10-01T03:07:16.754Z,0.00
2022-10-01T03:08:16.734Z,0.00
2022-10-01T03:09:16.704Z,0.00
2022-10-01T03:10:16.731Z,0.00
2022-10-01T03:11:16.693Z,0.00
2022-10-01T03:12:16.705Z,0.00
2022-10-01T03:13:16.690Z,0.00
2022-10-01T03:14:16.649Z,0.00
2022-10-01T03:15:16.668Z,0.00
2022-10-01T03:16:16.739Z,0.00
2022-10-01T03:17:16.625Z,0.00
2022-10-01T03:18:16.627Z,0.00
2022-10-01T03:19:16.615Z,0.00
2022-10-01T03:20:16.593Z,0.00
2022-10-01T03:21:16.576Z,0.00
2022-10-01T03:22:16.585Z,0.00
2022-10-01T03:23:16.566Z,0.00
2022-10-01T03:24:16.556Z,0.00
2022-10-01T03:25:16.549Z,0.00
2022-10-01T03:26:16.506Z,0.00
2022-10-01T03:27:16.632Z,0.00
2022-10-01T03:28:16.628Z,0.00
2022-10-01T03:29:16.547Z,0.00
2022-10-01T03:30:16.480Z,0.00
2022-10-01T03:31:16.539Z,0.00
2022-10-01T03:32:16.452Z,0.00
2022-10-01T03:33:16.471Z,0.00
2022-10-01T03:34:16.440Z,0.00
2022-10-01T03:35:16.439Z,0.00
2022-10-01T03:36:16.422Z,0.00
2022-10-01T03:37:16.411Z,0.00
2022-10-01T03:38:16.397Z,0.00
2022-10-01T03:39:16.445Z,0.00
2022-10-01T03:40:16.359Z,0.00
2022-10-01T03:41:16.369Z,0.00
2022-10-01T03:42:17.427Z,0.00
2022-10-01T03:43:16.361Z,0.00
2022-10-01T03:44:16.337Z,0.00
2022-10-01T03:45:16.339Z,0.00
2022-10-01T03:46:16.365Z,0.00
2022-10-01T03:47:16.304Z,0.00
2022-10-01T03:48:16.301Z,0.00
2022-10-01T03:49:16.331Z,0.00
2022-10-01T03:50:16.275Z,0.00
2022-10-01T03:51:19.797Z,0.00
2022-10-01T03:52:16.272Z,0.00
2022-10-01T03:53:16.337Z,0.00
2022-10-01T03:54:16.216Z,0.00
2022-10-01T03:55:16.217Z,0.00
2022-10-01T03:56:16.231Z,0.00
2022-10-01T03:57:16.204Z,0.00
2022-10-01T03:58:16.167Z,0.00
2022-10-01T03:59:16.231Z,0.00
2022-10-01T04:00:16.332Z,0.00
2022-10-01T04:01:16.221Z,0.00
2022-10-01T04:02:16.361Z,0.00
2022-10-01T04:03:16.124Z,0.00
2022-10-01T04:04:16.110Z,0.00
2022-10-01T04:05:16.135Z,0.00
2022-10-01T04:06:16.100Z,0.00
2022-10-01T04:07:16.089Z,0.00
2022-10-01T04:08:17.931Z,0.00
2022-10-01T04:09:16.059Z,0.00
2022-10-01T04:10:16.052Z,0.00
2022-10-01T04:11:16.080Z,0.00
2022-10-01T04:12:16.126Z,0.00
2022-10-01T04:13:16.030Z,0.00
2022-10-01T04:14:15.993Z,0.00
2022-10-01T04:15:16.020Z,0.00
2022-10-01T04:16:16.162Z,0.00
2022-10-01T04:17:16.019Z,0.00
2022-10-01T04:18:15.960Z,0.00
2022-10-01T04:19:15.964Z,0.00
2022-10-01T04:20:15.961Z,0.00
2022-10-01T04:21:15.928Z,0.00
2022-10-01T04:22:16.011Z,0.00
2022-10-01T04:23:15.940Z,0.00
2022-10-01T04:24:15.904Z,0.00
2022-10-01T04:25:15.887Z,0.00
2022-10-01T04:26:15.894Z,0.00
2022-10-01T04:27:15.882Z,0.00
2022-10-01T04:28:15.942Z,0.00
2022-10-01T04:29:15.848Z,0.00
2022-10-01T04:30:15.881Z,0.00
2022-10-01T04:31:15.870Z,0.00
2022-10-01T04:32:15.803Z,0.00
2022-10-01T04:33:15.837Z,0.00
2022-10-01T04:34:15.782Z,0.00
2022-10-01T04:35:15.788Z,0.00
2022-10-01T04:36:15.772Z,0.00
2022-10-01T04:37:15.776Z,0.00
2022-10-01T04:38:15.769Z,0.00
2022-10-01T04:39:15.752Z,0.00
2022-10-01T04:40:15.731Z,0.00
2022-10-01T04:41:15.720Z,0.00
2022-10-01T04:42:15.698Z,0.00
2022-10-01T04:43:15.748Z,0.00
2022-10-01T04:44:15.705Z,0.00
2022-10-01T04:45:15.761Z,0.00
2022-10-01T04:46:15.738Z,0.00
2022-10-01T04:47:15.657Z,0.00
2022-10-01T04:48:15.649Z,0.00
2022-10-01T04:49:15.661Z,0.00
2022-10-01T04:50:15.751Z,0.00
2022-10-01T04:51:15.642Z,0.00
2022-10-01T04:52:15.601Z,0.00
2022-10-01T04:53:15.623Z,0.00
2022-10-01T04:54:15.572Z,0.00
2022-10-01T04:55:15.592Z,0.00
2022-10-01T04:56:15.564Z,0.00
2022-10-01T04:57:15.547Z,0.00
2022-10-01T04:58:15.548Z,0.00
2022-10-01T04:59:15.542Z,0.00
2022-10-01T05:00:15.549Z,0.00
2022-10-01T05:01:15.533Z,0.00
2022-10-01T05:02:15.528Z,0.00
2022-10-01T05:03:15.479Z,0.00
2022-10-01T05:04:15.464Z,0.00
2022-10-01T05:05:15.513Z,0.00
2022-10-01T05:06:15.464Z,0.00
2022-10-01T05:07:15.462Z,0.00
2022-10-01T05:08:15.454Z,0.00
2022-10-01T05:09:15.425Z,0.00
2022-10-01T05:10:15.418Z,0.00
2022-10-01T05:11:15.424Z,0.00
2022-10-01T05:12:15.410Z,0.00
2022-10-01T05:13:15.379Z,0.00
2022-10-01T05:14:15.361Z,0.00
2022-10-01T05:15:15.369Z,0.00
2022-10-01T05:16:15.395Z,0.00
2022-10-01T05:17:15.369Z,0.00
2022-10-01T05:18:15.910Z,0.00
2022-10-01T05:19:15.882Z,1.00
2022-10-01T05:20:15.252Z,1.00
2022-10-01T05:21:15.250Z,1.00
2022-10-01T05:22:15.319Z,0.00
2022-10-01T05:23:15.230Z,2.00
2022-10-01T05:24:15.204Z,2.00
2022-10-01T05:25:15.193Z,1.00
2022-10-01T05:26:15.170Z,1.00
2022-10-01T05:27:15.186Z,2.00
2022-10-01T05:28:19.845Z,1.00
2022-10-01T05:29:15.193Z,3.00
2022-10-01T05:30:15.131Z,2.00
2022-10-01T05:31:15.174Z,4.00
2022-10-01T05:32:15.113Z,9.00
2022-10-01T05:33:15.166Z,9.00
2022-10-01T05:34:15.098Z,9.00
2022-10-01T05:35:15.092Z,8.00
2022-10-01T05:36:15.070Z,6.00
2022-10-01T05:37:15.059Z,9.00
2022-10-01T05:38:15.121Z,11.00
2022-10-01T05:39:15.051Z,10.00
2022-10-01T05:40:15.022Z,11.00
2022-10-01T05:41:15.024Z,14.00
2022-10-01T05:42:15.006Z,16.00
2022-10-01T05:43:15.039Z,12.00
2022-10-01T05:44:14.983Z,23.00
2022-10-01T05:45:14.966Z,19.00
2022-10-01T05:46:14.989Z,24.00
2022-10-01T05:47:14.979Z,24.00
2022-10-01T05:48:15.071Z,22.00
2022-10-01T05:49:15.867Z,25.00
2022-10-01T05:50:14.989Z,27.00
2022-10-01T05:51:14.995Z,33.00
2022-10-01T05:52:14.915Z,28.00
2022-10-01T05:53:14.942Z,28.00
2022-10-01T05:54:15.768Z,34.00
2022-10-01T05:55:14.942Z,31.00
2022-10-01T05:56:14.850Z,45.00
2022-10-01T05:57:14.853Z,40.00
2022-10-01T05:58:14.844Z,54.00
2022-10-01T05:59:14.859Z,37.00
2022-10-01T06:00:14.819Z,41.00
2022-10-01T06:01:14.806Z,44.00
2022-10-01T06:02:14.891Z,42.00
2022-10-01T06:03:14.830Z,39.00
2022-10-01T06:04:14.796Z,44.00
2022-10-01T06:05:14.830Z,36.00
2022-10-01T06:06:14.734Z,57.00
2022-10-01T06:07:14.745Z,61.00
2022-10-01T06:08:14.731Z,79.00
2022-10-01T06:09:14.729Z,55.00
2022-10-01T06:10:14.707Z,51.00
2022-10-01T06:11:14.738Z,58.00
2022-10-01T06:12:19.578Z,57.00
2022-10-01T06:13:14.674Z,67.00
2022-10-01T06:14:14.662Z,73.00
2022-10-01T06:15:14.669Z,64.00
2022-10-01T06:16:14.768Z,63.00
2022-10-01T06:17:14.621Z,53.00
2022-10-01T06:18:14.618Z,61.00
2022-10-01T06:19:14.609Z,63.00
2022-10-01T06:20:14.642Z,66.00
2022-10-01T06:21:14.701Z,43.00
2022-10-01T06:22:14.587Z,52.00
2022-10-01T06:23:14.575Z,47.00
2022-10-01T06:24:14.564Z,48.00
2022-10-01T06:25:14.646Z,47.00
2022-10-01T06:26:14.541Z,59.00
2022-10-01T06:27:14.538Z,70.00
2022-10-01T06:28:14.657Z,47.00
2022-10-01T06:29:14.504Z,80.00
2022-10-01T06:30:14.515Z,87.00
2022-10-01T06:31:14.612Z,74.00
2022-10-01T06:32:14.507Z,63.00
2022-10-01T06:33:14.521Z,58.00
2022-10-01T06:34:14.474Z,72.00
2022-10-01T06:35:14.453Z,81.00
2022-10-01T06:36:14.412Z,80.00
2022-10-01T06:37:14.558Z,71.00
2022-10-01T06:38:14.413Z,92.00
2022-10-01T06:39:14.383Z,97.00
2022-10-01T06:40:14.383Z,68.00
2022-10-01T06:41:14.366Z,57.00
2022-10-01T06:42:14.395Z,63.00
2022-10-01T06:43:14.584Z,79.00
2022-10-01T06:44:15.640Z,59.00
2022-10-01T06:45:14.342Z,61.00
2022-10-01T06:46:14.367Z,86.00
2022-10-01T06:47:14.594Z,68.00
2022-10-01T06:48:14.337Z,74.00
2022-10-01T06:49:14.284Z,116.00
2022-10-01T06:50:14.280Z,71.00
2022-10-01T06:51:15.016Z,123.00
2022-10-01T06:52:14.243Z,57.00
2022-10-01T06:53:14.338Z,169.00
2022-10-01T06:54:14.291Z,416.00
2022-10-01T06:55:16.705Z,321.00
2022-10-01T06:56:14.990Z,332.00
2022-10-01T06:57:14.193Z,288.00
2022-10-01T06:58:14.228Z,247.00
2022-10-01T06:59:14.424Z,163.00
2022-10-01T07:00:14.162Z,99.00
2022-10-01T07:01:14.277Z,81.00
2022-10-01T07:02:14.192Z,83.00
2022-10-01T07:03:14.162Z,207.00
2022-10-01T07:04:21.022Z,173.00
2022-10-01T07:05:14.763Z,160.00
2022-10-01T07:06:14.136Z,150.00
2022-10-01T07:07:14.090Z,528.00
2022-10-01T07:08:14.072Z,504.00
2022-10-01T07:09:14.070Z,655.00
2022-10-01T07:10:14.079Z,380.00
2022-10-01T07:11:14.046Z,207.00
2022-10-01T07:12:14.189Z,121.00
2022-10-01T07:13:14.078Z,131.00
2022-10-01T07:14:14.011Z,160.00
2022-10-01T07:15:15.018Z,144.00
2022-10-01T07:16:15.021Z,148.00
2022-10-01T07:17:14.088Z,172.00
2022-10-01T07:18:14.174Z,158.00
2022-10-01T07:19:13.956Z,131.00
2022-10-01T07:20:13.953Z,88.00
2022-10-01T07:21:13.958Z,168.00
2022-10-01T07:22:13.919Z,102.00
2022-10-01T07:23:14.902Z,353.00
2022-10-01T07:24:13.924Z,414.00
2022-10-01T07:25:14.037Z,277.00
2022-10-01T07:26:14.010Z,552.00
2022-10-01T07:27:13.870Z,404.00
2022-10-01T07:28:14.097Z,265.00
2022-10-01T07:29:13.900Z,332.00
2022-10-01T07:30:13.846Z,304.00
2022-10-01T07:31:13.893Z,361.00
2022-10-01T07:32:13.946Z,443.00
2022-10-01T07:33:14.041Z,467.00
2022-10-01T07:34:13.820Z,383.00
2022-10-01T07:35:13.881Z,369.00
2022-10-01T07:36:13.796Z,484.00
2022-10-01T07:37:13.776Z,611.00
2022-10-01T07:38:13.766Z,386.00
2022-10-01T07:39:13.791Z,712.00
2022-10-01T07:40:13.769Z,582.00
2022-10-01T07:41:13.960Z,508.00
2022-10-01T07:42:14.080Z,681.00
2022-10-01T07:43:13.713Z,453.00
2022-10-01T07:44:13.700Z,631.00
2022-10-01T07:45:13.705Z,820.00
2022-10-01T07:46:13.860Z,940.00
2022-10-01T07:47:13.782Z,862.00
2022-10-01T07:48:13.743Z,658.00
2022-10-01T07:49:13.698Z,541.00
2022-10-01T07:50:13.660Z,909.00
2022-10-01T07:51:13.631Z,405.00
2022-10-01T07:52:13.625Z,705.00
2022-10-01T07:53:13.612Z,776.00
2022-10-01T07:54:13.769Z,923.00
2022-10-01T07:55:13.576Z,677.00
2022-10-01T07:56:13.639Z,930.00
2022-10-01T07:57:13.567Z,932.00
2022-10-01T07:58:13.549Z,1652.00
2022-10-01T07:59:13.533Z,1524.00
2022-10-01T08:00:13.535Z,1298.00
2022-10-01T08:01:13.555Z,1431.00
2022-10-01T08:02:13.533Z,868.00
2022-10-01T08:03:13.495Z,638.00
2022-10-01T08:04:14.306Z,1420.00
2022-10-01T08:05:13.480Z,836.00
2022-10-01T08:06:13.457Z,761.00
2022-10-01T08:07:13.470Z,632.00
2022-10-01T08:08:13.520Z,462.00
2022-10-01T08:09:13.435Z,1000.00
2022-10-01T08:10:13.497Z,954.00
2022-10-01T08:11:13.452Z,460.00
2022-10-01T08:12:14.092Z,1852.00
2022-10-01T08:13:13.402Z,1903.00
2022-10-01T08:14:13.378Z,1254.00
2022-10-01T08:15:13.370Z,695.00
2022-10-01T08:16:13.427Z,1934.00
2022-10-01T08:17:13.367Z,1445.00
2022-10-01T08:18:13.358Z,1322.00
2022-10-01T08:19:13.329Z,1445.00
2022-10-01T08:20:13.327Z,1342.00
2022-10-01T08:21:13.294Z,1847.00
2022-10-01T08:22:13.319Z,1536.00
2022-10-01T08:23:13.277Z,1741.00
2022-10-01T08:24:13.280Z,2084.00
2022-10-01T08:25:13.280Z,2427.00
2022-10-01T08:26:13.254Z,2133.00
2022-10-01T08:27:13.239Z,1165.00
2022-10-01T08:28:13.392Z,1380.00
2022-10-01T08:29:16.985Z,1850.00
2022-10-01T08:30:13.215Z,1423.00
2022-10-01T08:31:13.212Z,1588.00
2022-10-01T08:32:13.242Z,2373.00
2022-10-01T08:33:13.185Z,1626.00
2022-10-01T08:34:13.169Z,1054.00
2022-10-01T08:35:13.149Z,1949.00
2022-10-01T08:36:13.151Z,999.00
2022-10-01T08:37:13.149Z,1419.00
2022-10-01T08:38:13.129Z,1205.00
2022-10-01T08:39:13.125Z,925.00
2022-10-01T08:40:13.116Z,1076.00
2022-10-01T08:41:13.074Z,1152.00
2022-10-01T08:42:13.104Z,1322.00
2022-10-01T08:43:13.073Z,1609.00
2022-10-01T08:44:13.089Z,1629.00
2022-10-01T08:45:13.075Z,2154.00
2022-10-01T08:46:13.068Z,2557.00
2022-10-01T08:47:13.018Z,1218.00
2022-10-01T08:48:13.028Z,2774.00
2022-10-01T08:49:13.012Z,2419.00
2022-10-01T08:50:13.010Z,1497.00
2022-10-01T08:51:12.996Z,626.00
2022-10-01T08:52:12.974Z,937.00
2022-10-01T08:53:12.961Z,1468.00
2022-10-01T08:54:12.960Z,721.00
2022-10-01T08:55:12.954Z,1649.00
2022-10-01T08:56:12.964Z,2196.00
2022-10-01T08:57:12.902Z,1171.00
2022-10-01T08:58:12.900Z,758.00
2022-10-01T08:59:12.899Z,1407.00
2022-10-01T09:00:12.896Z,1360.00
2022-10-01T09:01:12.893Z,602.00
2022-10-01T09:02:12.909Z,1299.00
2022-10-01T09:03:12.858Z,1336.00
2022-10-01T09:04:12.911Z,2563.00
2022-10-01T09:05:12.827Z,3034.00
2022-10-01T09:06:12.822Z,2810.00
2022-10-01T09:07:12.828Z,2491.00
2022-10-01T09:08:12.825Z,3069.00
2022-10-01T09:09:12.776Z,2237.00
2022-10-01T09:10:12.780Z,2343.00
2022-10-01T09:11:12.755Z,2357.00
2022-10-01T09:12:12.764Z,3416.00
2022-10-01T09:13:12.735Z,2309.00
2022-10-01T09:14:12.739Z,1632.00
2022-10-01T09:15:12.729Z,3642.00
2022-10-01T09:16:12.793Z,4740.00
2022-10-01T09:17:12.688Z,4568.00
2022-10-01T09:18:12.691Z,3451.00
2022-10-01T09:19:12.685Z,6418.00
2022-10-01T09:20:12.680Z,3865.00
2022-10-01T09:21:12.647Z,3694.00
2022-10-01T09:22:12.641Z,3968.00
2022-10-01T09:23:12.635Z,3479.00
2022-10-01T09:24:12.650Z,2556.00
2022-10-01T09:25:12.691Z,2552.00
2022-10-01T09:26:12.603Z,2722.00
2022-10-01T09:27:12.611Z,2690.00
2022-10-01T09:28:12.651Z,2553.00
2022-10-01T09:29:12.563Z,5433.00
2022-10-01T09:30:12.622Z,7727.00
2022-10-01T09:31:12.638Z,5117.00
2022-10-01T09:32:12.544Z,2567.00
2022-10-01T09:33:12.525Z,1958.00
2022-10-01T09:34:12.517Z,2096.00
2022-10-01T09:35:12.516Z,1242.00
2022-10-01T09:36:12.514Z,1448.00
2022-10-01T09:37:12.480Z,1794.00
2022-10-01T09:38:12.468Z,1418.00
2022-10-01T09:39:12.465Z,1489.00
2022-10-01T09:40:12.472Z,2123.00
2022-10-01T09:41:12.429Z,2413.00
2022-10-01T09:42:12.429Z,2916.00
2022-10-01T09:43:12.434Z,5647.00
2022-10-01T09:44:16.745Z,5427.00
2022-10-01T09:45:12.402Z,3859.00
2022-10-01T09:46:12.430Z,4531.00
2022-10-01T09:47:12.373Z,5862.00
2022-10-01T09:48:12.375Z,6063.00
2022-10-01T09:49:12.345Z,2946.00
2022-10-01T09:50:12.376Z,2576.00
2022-10-01T09:51:12.354Z,5773.00
2022-10-01T09:52:12.361Z,4651.00
2022-10-01T09:53:12.307Z,3824.00
2022-10-01T09:54:12.307Z,3475.00
2022-10-01T09:55:12.277Z,1818.00
2022-10-01T09:56:12.310Z,10176.00
2022-10-01T09:57:12.266Z,5435.00
2022-10-01T09:58:12.262Z,21639.00
2022-10-01T09:59:12.242Z,16530.00
2022-10-01T10:00:12.245Z,7045.00
2022-10-01T10:01:12.229Z,7402.00
2022-10-01T10:02:12.289Z,2592.00
2022-10-01T10:03:12.315Z,21451.00
2022-10-01T10:04:15.531Z,22080.00
2022-10-01T10:05:12.179Z,13404.00
2022-10-01T10:06:12.168Z,1995.00
2022-10-01T10:07:12.157Z,11812.00
2022-10-01T10:08:12.168Z,8459.00
2022-10-01T10:09:12.157Z,1378.00
2022-10-01T10:10:12.153Z,7706.00
2022-10-01T10:11:12.140Z,8081.00
2022-10-01T10:12:12.123Z,3214.00
2022-10-01T10:13:12.113Z,7307.00
2022-10-01T10:14:12.110Z,6707.00
2022-10-01T10:15:12.080Z,4569.00
2022-10-01T10:16:12.095Z,3307.00
2022-10-01T10:17:12.048Z,2911.00
2022-10-01T10:18:12.055Z,2419.00
2022-10-01T10:19:12.061Z,2752.00
2022-10-01T10:20:12.048Z,2860.00
2022-10-01T10:21:12.007Z,4488.00
2022-10-01T10:22:11.999Z,2765.00
2022-10-01T10:23:12.061Z,3144.00
2022-10-01T10:24:12.043Z,3288.00
2022-10-01T10:25:11.965Z,2490.00
2022-10-01T10:26:12.059Z,2466.00
2022-10-01T10:27:11.959Z,11036.00
2022-10-01T10:28:11.989Z,8466.00
2022-10-01T10:29:11.938Z,18978.00
2022-10-01T10:30:11.936Z,17320.00
2022-10-01T10:31:11.973Z,9870.00
2022-10-01T10:32:11.896Z,3579.00
2022-10-01T10:33:11.898Z,3222.00
2022-10-01T10:34:11.889Z,2623.00
2022-10-01T10:35:11.858Z,2017.00
2022-10-01T10:36:11.893Z,1929.00
2022-10-01T10:37:11.847Z,1816.00
2022-10-01T10:38:11.828Z,1622.00
2022-10-01T10:39:11.833Z,1493.00
2022-10-01T10:40:11.815Z,1378.00
2022-10-01T10:41:11.829Z,1342.00
2022-10-01T10:42:11.808Z,1367.00
2022-10-01T10:43:11.779Z,1381.00
2022-10-01T10:44:11.784Z,1356.00
2022-10-01T10:45:11.799Z,1490.00
2022-10-01T10:46:11.853Z,1259.00
2022-10-01T10:47:11.738Z,1364.00
2022-10-01T10:48:11.733Z,1409.00
2022-10-01T10:49:11.726Z,1512.00
2022-10-01T10:50:11.703Z,1549.00
2022-10-01T10:51:11.716Z,2020.00
2022-10-01T10:52:11.678Z,2405.00
2022-10-01T10:53:11.680Z,2657.00
2022-10-01T10:54:11.741Z,3125.00
2022-10-01T10:55:11.650Z,2974.00
2022-10-01T10:56:11.700Z,3517.00
2022-10-01T10:57:11.638Z,4118.00
2022-10-01T10:58:11.615Z,3245.00
2022-10-01T10:59:11.613Z,2901.00
2022-10-01T11:00:11.601Z,3084.00
2022-10-01T11:01:11.633Z,3245.00
2022-10-01T11:02:11.600Z,3801.00
2022-10-01T11:03:11.564Z,4286.00
2022-10-01T11:04:11.558Z,4097.00
2022-10-01T11:05:11.565Z,3786.00
2022-10-01T11:06:11.528Z,2442.00
2022-10-01T11:07:11.539Z,1556.00
2022-10-01T11:08:15.521Z,1135.00
2022-10-01T11:09:11.520Z,856.00
2022-10-01T11:10:11.500Z,777.00
2022-10-01T11:11:11.479Z,840.00
2022-10-01T11:12:11.481Z,894.00
2022-10-01T11:13:11.460Z,912.00
2022-10-01T11:14:11.516Z,798.00
2022-10-01T11:15:11.477Z,600.00
2022-10-01T11:16:11.471Z,572.00
2022-10-01T11:17:11.418Z,451.00
2022-10-01T11:18:11.412Z,397.00
2022-10-01T11:19:11.386Z,437.00
2022-10-01T11:20:11.372Z,280.00
2022-10-01T11:21:11.396Z,710.00
2022-10-01T11:22:11.373Z,811.00
2022-10-01T11:23:11.350Z,824.00
2022-10-01T11:24:11.329Z,887.00
2022-10-01T11:25:11.338Z,1184.00
2022-10-01T11:26:11.340Z,1566.00
2022-10-01T11:27:11.305Z,1944.00
2022-10-01T11:28:11.438Z,1984.00
2022-10-01T11:29:11.290Z,2040.00
2022-10-01T11:30:11.261Z,2455.00
2022-10-01T11:31:11.323Z,3211.00
2022-10-01T11:32:11.253Z,2826.00
2022-10-01T11:33:11.247Z,3035.00
2022-10-01T11:34:11.263Z,6725.00
2022-10-01T11:35:11.209Z,2302.00
2022-10-01T11:36:11.202Z,20916.00
2022-10-01T11:37:11.197Z,27145.00
2022-10-01T11:38:11.205Z,13950.00
2022-10-01T11:39:11.183Z,16454.00
2022-10-01T11:40:11.207Z,10347.00
2022-10-01T11:41:11.173Z,16353.00
2022-10-01T11:42:11.149Z,6879.00
2022-10-01T11:43:11.148Z,8978.00
2022-10-01T11:44:11.117Z,11748.00
2022-10-01T11:45:11.108Z,5983.00
2022-10-01T11:46:11.127Z,7005.00
2022-10-01T11:47:11.098Z,4971.00
2022-10-01T11:48:11.092Z,3929.00
2022-10-01T11:49:11.080Z,3849.00
2022-10-01T11:50:11.089Z,4141.00
2022-10-01T11:51:11.058Z,4205.00
2022-10-01T11:52:11.084Z,4266.00
2022-10-01T11:53:11.029Z,3426.00
2022-10-01T11:54:11.029Z,2639.00
2022-10-01T11:55:10.997Z,5041.00
2022-10-01T11:56:11.002Z,10625.00
2022-10-01T11:57:10.971Z,4672.00
2022-10-01T11:58:10.966Z,2826.00
2022-10-01T11:59:11.554Z,9292.00
2022-10-01T12:00:11.081Z,6765.00
2022-10-01T12:01:10.937Z,13954.00
2022-10-01T12:02:11.007Z,4556.00
2022-10-01T12:03:10.915Z,4013.00
2022-10-01T12:04:10.935Z,7762.00
2022-10-01T12:05:10.922Z,9621.00
2022-10-01T12:06:10.872Z,9096.00
2022-10-01T12:07:10.869Z,4543.00
2022-10-01T12:08:10.881Z,2998.00
2022-10-01T12:09:10.857Z,11904.00
2022-10-01T12:10:10.856Z,11466.00
2022-10-01T12:11:10.824Z,5185.00
2022-10-01T12:12:10.808Z,9116.00
2022-10-01T12:13:10.812Z,14650.00
2022-10-01T12:14:10.804Z,3517.00
2022-10-01T12:15:10.789Z,11496.00
2022-10-01T12:16:10.858Z,5475.00
2022-10-01T12:17:10.796Z,3837.00
2022-10-01T12:18:10.745Z,3253.00
2022-10-01T12:19:10.752Z,3263.00
2022-10-01T12:20:10.734Z,2712.00
2022-10-01T12:21:10.717Z,2435.00
2022-10-01T12:22:10.699Z,1934.00
2022-10-01T12:23:10.696Z,5636.00
2022-10-01T12:24:10.679Z,5949.00
2022-10-01T12:25:10.687Z,69324.00
2022-10-01T12:26:10.651Z,28767.00
2022-10-01T12:27:10.648Z,10235.00
2022-10-01T12:28:13.766Z,5379.00
2022-10-01T12:29:10.624Z,3584.00
2022-10-01T12:30:10.652Z,1764.00
2022-10-01T12:31:10.629Z,1528.00
2022-10-01T12:32:10.580Z,1974.00
2022-10-01T12:33:10.592Z,713.00
2022-10-01T12:34:10.569Z,744.00
2022-10-01T12:35:10.558Z,1494.00
2022-10-01T12:36:10.568Z,2584.00
2022-10-01T12:37:10.545Z,2281.00
2022-10-01T12:38:10.541Z,13769.00
2022-10-01T12:39:10.519Z,5282.00
2022-10-01T12:40:10.498Z,3679.00
2022-10-01T12:41:10.519Z,2589.00
2022-10-01T12:42:10.489Z,5705.00
2022-10-01T12:43:10.478Z,28182.00